createdAt,value
2022-11-01T00:02:53.761Z,101805.31
2022-11-01T00:07:56.030Z,101811.00
2022-11-01T00:12:55.188Z,101805.41
2022-11-01T00:18:00.762Z,101799.00
2022-11-01T00:23:05.796Z,101793.69
2022-11-01T00:28:06.810Z,101790.75
2022-11-01T00:33:07.982Z,101789.78
2022-11-01T00:38:07.528Z,101778.25
2022-11-01T00:43:09.005Z,101781.34
2022-11-01T00:48:14.887Z,101785.13
2022-11-01T00:53:15.893Z,101789.41
2022-11-01T00:58:15.751Z,101781.94
2022-11-01T01:03:20.041Z,101782.50
2022-11-01T01:08:21.327Z,101777.41
2022-11-01T01:13:46.250Z,101773.28
2022-11-01T01:18:45.382Z,101778.56
2022-11-01T01:23:44.157Z,101781.91
2022-11-01T01:28:46.241Z,101781.66
2022-11-01T01:33:45.592Z,101783.53
2022-11-01T01:38:51.602Z,101785.28
2022-11-01T01:43:49.018Z,101777.44
2022-11-01T01:48:52.495Z,101768.50
2022-11-01T01:53:52.645Z,101783.97
2022-11-01T01:58:55.495Z,101782.06
2022-11-01T02:03:54.494Z,101780.88
2022-11-01T02:08:54.102Z,101782.28
2022-11-01T02:13:54.854Z,101785.41
2022-11-01T02:18:58.464Z,101787.47
2022-11-01T02:24:15.985Z,101792.38
2022-11-01T02:29:27.560Z,101791.19
2022-11-01T02:34:37.746Z,101791.63
2022-11-01T02:39:37.336Z,101795.09
2022-11-01T02:44:40.020Z,101790.47
2022-11-01T02:49:43.976Z,101787.91
2022-11-01T02:54:45.430Z,101793.56
2022-11-01T02:59:47.287Z,101798.03
2022-11-01T03:04:46.170Z,101792.41
2022-11-01T03:09:43.882Z,101806.00
2022-11-01T03:14:46.003Z,101803.50
2022-11-01T03:19:48.972Z,101800.97
2022-11-01T03:24:50.089Z,101806.34
2022-11-01T03:29:49.547Z,101802.28
2022-11-01T03:34:48.362Z,101801.88
2022-11-01T03:45:41.151Z,101794.84
2022-11-01T03:56:22.612Z,101798.19
2022-11-01T04:01:20.747Z,101813.13
2022-11-01T04:06:34.898Z,101811.84
2022-11-01T04:12:03.838Z,101817.06
2022-11-01T04:17:39.807Z,101823.03
2022-11-01T04:22:42.509Z,101815.38
2022-11-01T04:27:40.964Z,101818.41
2022-11-01T04:32:50.631Z,101821.88
2022-11-01T04:37:52.485Z,101825.47
2022-11-01T04:42:53.200Z,101833.47
2022-11-01T04:48:09.458Z,101821.72
2022-11-01T04:53:09.141Z,101824.28
2022-11-01T04:58:07.442Z,101831.66
2022-11-01T05:03:10.585Z,101832.66
2022-11-01T05:08:12.396Z,101837.84
2022-11-01T05:13:10.456Z,101842.22
2022-11-01T05:18:41.411Z,101844.44
2022-11-01T05:23:42.944Z,101844.47
2022-11-01T05:28:41.512Z,101853.19
2022-11-01T05:33:42.051Z,101860.78
2022-11-01T05:38:42.388Z,101853.19
2022-11-01T05:43:43.846Z,101859.41
2022-11-01T05:48:44.903Z,101860.00
2022-11-01T05:53:47.924Z,101871.53
2022-11-01T05:58:49.871Z,101868.06
2022-11-01T06:03:57.034Z,101875.13
2022-11-01T06:08:55.786Z,101882.16
2022-11-01T06:14:00.265Z,101880.91
2022-11-01T06:19:04.418Z,101880.16
2022-11-01T06:24:05.281Z,101892.81
2022-11-01T06:29:05.238Z,101897.56
2022-11-01T06:34:07.139Z,101892.88
2022-11-01T06:39:05.579Z,101899.75
2022-11-01T06:44:07.579Z,101898.13
2022-11-01T06:49:08.872Z,101900.84
2022-11-01T06:54:09.554Z,101898.22
2022-11-01T06:59:13.491Z,101900.97
2022-11-01T07:04:20.161Z,101896.56
2022-11-01T07:09:23.651Z,101898.31
2022-11-01T07:14:24.629Z,101897.16
2022-11-01T07:19:27.107Z,101902.66
2022-11-01T07:24:25.355Z,101902.28
2022-11-01T07:29:24.536Z,101904.31
2022-11-01T07:34:25.810Z,101895.25
2022-11-01T07:39:26.457Z,101902.31
2022-11-01T07:44:26.429Z,101902.03
2022-11-01T07:49:31.007Z,101903.72
2022-11-01T07:54:29.904Z,101894.00
2022-11-01T07:59:30.658Z,101892.78
2022-11-01T08:04:32.124Z,101899.19
2022-11-01T08:09:32.270Z,101890.09
2022-11-01T08:14:33.535Z,101885.03
2022-11-01T08:19:32.664Z,101877.59
2022-11-01T08:24:34.032Z,101876.03
2022-11-01T08:29:35.690Z,101874.66
2022-11-01T08:34:44.529Z,101875.19
2022-11-01T08:39:43.710Z,101873.09
2022-11-01T08:44:45.236Z,101873.09
2022-11-01T08:49:45.071Z,101866.81
2022-11-01T08:54:52.173Z,101862.66
2022-11-01T08:59:52.320Z,101868.38
2022-11-01T09:04:50.827Z,101868.25
2022-11-01T09:09:51.632Z,101866.22
2022-11-01T09:14:58.415Z,101858.53
2022-11-01T09:20:05.627Z,101850.19
2022-11-01T09:25:13.001Z,101854.69
2022-11-01T09:30:14.890Z,101848.28
2022-11-01T09:35:16.158Z,101849.78
2022-11-01T09:40:38.401Z,101840.25
2022-11-01T09:45:38.858Z,101827.50
2022-11-01T09:50:44.008Z,101831.16
2022-11-01T09:56:16.601Z,101830.03
2022-11-01T10:01:17.957Z,101817.53
2022-11-01T10:06:23.009Z,101814.94
2022-11-01T10:11:42.957Z,101814.31
2022-11-01T10:16:52.201Z,101815.91
2022-11-01T10:21:51.155Z,101811.25
2022-11-01T10:26:50.671Z,101813.00
2022-11-01T10:31:53.447Z,101805.22
2022-11-01T10:36:56.873Z,101806.25
2022-11-01T10:41:59.603Z,101797.16
2022-11-01T10:46:58.557Z,101785.81
2022-11-01T10:52:00.350Z,101781.41
2022-11-01T10:57:10.794Z,101775.22
2022-11-01T11:02:16.900Z,101769.13
2022-11-01T11:07:19.875Z,101767.75
2022-11-01T11:12:21.609Z,101762.22
2022-11-01T11:17:31.488Z,101762.44
2022-11-01T11:22:31.950Z,101750.88
2022-11-01T11:27:44.561Z,101750.88
2022-11-01T11:32:52.679Z,101746.13
2022-11-01T11:38:05.904Z,101740.03
2022-11-01T11:43:32.826Z,101733.69
2022-11-01T11:48:37.800Z,101720.41
2022-11-01T11:53:39.547Z,101723.06
2022-11-01T11:58:52.534Z,101710.78
2022-11-01T12:03:56.645Z,101713.63
2022-11-01T12:09:00.241Z,101707.44
2022-11-01T12:14:11.367Z,101699.44
2022-11-01T12:19:22.399Z,101704.53
2022-11-01T12:24:29.047Z,101695.03
2022-11-01T12:29:31.130Z,101695.81
2022-11-01T12:34:37.134Z,101695.75
2022-11-01T12:39:57.633Z,101694.88
2022-11-01T12:44:58.390Z,101686.72
2022-11-01T12:49:58.708Z,101683.41
2022-11-01T12:55:04.349Z,101685.81
2022-11-01T13:00:02.264Z,101682.97
2022-11-01T13:05:09.282Z,101684.56
2022-11-01T13:10:20.463Z,101682.91
2022-11-01T13:15:30.228Z,101678.44
2022-11-01T13:20:34.962Z,101674.50
2022-11-01T13:25:39.140Z,101662.19
2022-11-01T13:30:37.973Z,101662.56
2022-11-01T13:35:46.545Z,101660.72
2022-11-01T13:41:06.112Z,101660.28
2022-11-01T13:46:15.283Z,101656.19
2022-11-01T13:51:18.435Z,101646.00
2022-11-01T13:56:19.308Z,101645.06
2022-11-01T14:01:37.890Z,101640.41
2022-11-01T14:06:39.513Z,101648.63
2022-11-01T14:12:11.983Z,101646.59
2022-11-01T14:17:16.571Z,101650.34
2022-11-01T14:22:31.300Z,101643.53
2022-11-01T14:27:35.234Z,101634.66
2022-11-01T14:32:42.179Z,101641.28
2022-11-01T14:37:46.362Z,101638.91
2022-11-01T14:42:47.904Z,101635.47
2022-11-01T14:47:47.126Z,101638.19
2022-11-01T14:53:00.948Z,101643.13
2022-11-01T14:58:32.514Z,101642.56
2022-11-01T15:03:35.023Z,101637.50
2022-11-01T15:08:43.754Z,101637.53
2022-11-01T15:13:46.860Z,101633.88
2022-11-01T15:18:50.392Z,101645.25
2022-11-01T15:23:50.489Z,101636.50
2022-11-01T15:29:00.969Z,101639.50
2022-11-01T15:34:02.959Z,101637.19
2022-11-01T15:39:02.815Z,101638.94
2022-11-01T15:44:01.323Z,101627.50
2022-11-01T15:49:06.931Z,101631.53
2022-11-01T15:54:16.353Z,101628.69
2022-11-01T15:59:37.041Z,101632.72
2022-11-01T16:04:38.210Z,101639.78
2022-11-01T16:09:47.375Z,101642.16
2022-11-01T16:15:00.764Z,101642.88
2022-11-01T16:19:58.865Z,101637.28
2022-11-01T16:25:05.046Z,101638.88
2022-11-01T16:30:10.695Z,101644.13
2022-11-01T16:35:29.393Z,101645.03
2022-11-01T16:40:30.287Z,101638.25
2022-11-01T16:45:33.926Z,101641.06
2022-11-01T16:50:38.334Z,101639.97
2022-11-01T16:55:38.839Z,101639.28
2022-11-01T17:00:39.500Z,101638.19
2022-11-01T17:05:38.125Z,101637.50
2022-11-01T17:10:38.727Z,101631.72
2022-11-01T17:15:43.285Z,101635.28
2022-11-01T17:20:44.688Z,101636.22
2022-11-01T17:25:45.362Z,101639.16
2022-11-01T17:30:47.003Z,101625.06
2022-11-01T17:35:47.021Z,101627.59
2022-11-01T17:40:52.325Z,101625.88
2022-11-01T17:45:56.462Z,101624.53
2022-11-01T17:51:06.051Z,101629.06
2022-11-01T17:56:06.532Z,101620.28
2022-11-01T18:01:07.574Z,101628.09
2022-11-01T18:06:13.699Z,101631.00
2022-11-01T18:11:40.825Z,101632.50
2022-11-01T18:16:46.184Z,101634.88
2022-11-01T18:21:58.766Z,101638.03
2022-11-01T18:27:04.590Z,101641.09
2022-11-01T18:32:05.592Z,101645.41
2022-11-01T18:37:44.775Z,101639.41
2022-11-01T18:42:49.660Z,101636.56
2022-11-01T18:47:58.547Z,101651.41
2022-11-01T18:53:20.683Z,101650.28
2022-11-01T18:58:30.823Z,101652.94
2022-11-01T19:03:32.221Z,101655.81
2022-11-01T19:08:33.854Z,101658.81
2022-11-01T19:13:41.999Z,101643.44
2022-11-01T19:18:48.416Z,101652.81
2022-11-01T19:23:50.690Z,101646.78
2022-11-01T19:28:52.597Z,101650.25
2022-11-01T19:33:57.688Z,101650.09
2022-11-01T19:38:56.773Z,101647.00
2022-11-01T19:44:01.078Z,101643.56
2022-11-01T19:49:11.236Z,101642.09
2022-11-01T19:54:14.611Z,101651.66
2022-11-01T19:59:17.524Z,101647.44
2022-11-01T20:04:16.419Z,101650.53
2022-11-01T20:09:16.036Z,101655.66
2022-11-01T20:14:17.645Z,101650.38
2022-11-01T20:19:21.187Z,101638.41
2022-11-01T20:24:21.251Z,101631.72
2022-11-01T20:29:25.654Z,101629.59
2022-11-01T20:34:41.347Z,101633.16
2022-11-01T20:39:51.709Z,101635.31
2022-11-01T20:45:15.839Z,101623.66
2022-11-01T20:50:30.406Z,101618.09
2022-11-01T20:55:43.080Z,101622.84
2022-11-01T21:00:48.047Z,101626.06
2022-11-01T21:05:49.546Z,101627.22
2022-11-01T21:11:00.300Z,101622.34
2022-11-01T21:16:02.019Z,101610.06
2022-11-01T21:21:25.152Z,101600.38
2022-11-01T21:27:10.076Z,101599.72
2022-11-01T21:32:28.301Z,101593.63
2022-11-01T21:37:30.960Z,101586.06
2022-11-01T21:42:39.603Z,101583.59
2022-11-01T21:47:47.728Z,101586.53
2022-11-01T21:53:06.020Z,101580.00
2022-11-01T21:58:12.774Z,101572.69
2022-11-01T22:03:13.103Z,101572.81
2022-11-01T22:08:17.118Z,101570.69
2022-11-01T22:13:16.048Z,101573.81
2022-11-01T22:18:13.533Z,101568.72
2022-11-01T22:23:12.033Z,101574.66
2022-11-01T22:28:09.683Z,101576.28
2022-11-01T22:33:13.488Z,101584.78
2022-11-01T22:38:19.147Z,101572.78
2022-11-01T22:43:16.943Z,101565.72
2022-11-01T22:48:18.412Z,101562.94
2022-11-01T22:53:19.145Z,101560.31
2022-11-01T22:58:36.687Z,101555.50
2022-11-01T23:03:37.788Z,101547.97
2022-11-01T23:08:37.980Z,101536.72
2022-11-01T23:14:04.740Z,101538.84
2022-11-01T23:19:03.665Z,101543.75
2022-11-01T23:24:00.996Z,101538.34
2022-11-01T23:28:58.575Z,101531.13
2022-11-01T23:33:57.729Z,101531.59
2022-11-01T23:43:58.476Z,101538.22
2022-11-01T23:49:05.125Z,101540.19
2022-11-01T23:54:06.659Z,101541.47
2022-11-01T23:59:08.535Z,101539.97
